EY303 / A6-BLM 7700 Squawk Report (17th of April, 2018)

Aircraft B789 Reg No. A6-BLM Age 1 years old
Model 787 Jet engines 2 First flight 06-05-17
Registered 19-05-17 Rollout N/A Delivered 19-05-17
Construction No. 39658 Line No. 0561 Series 9
ADSHEX 8964BD Airline name Etihad Airways Owner N/A
Airfield based Abu Dhabi-International~ ~A6 First tracked 2017-05-05 18:27:06
Time Lat Lon Altitude Heading Speed Vertical Rate
2018-04-17 11:30:05 GMT 24.442577 54.669937 250 308 164 -832
2018-04-17 11:29:56 GMT 24.437805 54.676769 375 308 164 -832
2018-04-17 11:29:53 GMT 24.436295 54.678852 425 309 164 -896
2018-04-17 11:29:38 GMT 24.429520 54.688313 600 308 164 -896
2018-04-17 11:29:30 GMT 24.425537 54.694012 725 308 164 -768
2018-04-17 11:29:19 GMT 24.420933 54.700512 850 309 165 -960
2018-04-17 11:29:08 GMT 24.415485 54.708237 1,075 308 164 -768
2018-04-17 11:28:59 GMT 24.410969 54.714558 1,150 309 165 -1024
2018-04-17 11:28:47 GMT 24.405670 54.721985 1,300 308 168 -896
2018-04-17 11:28:42 GMT 24.403152 54.725494 1,325 308 168 -640
2018-04-17 11:28:38 GMT 24.401367 54.728039 1,400 308 167 -832
2018-04-17 11:28:26 GMT 24.395420 54.736427 1,550 308 174 -896
2018-04-17 11:28:22 GMT 24.392954 54.739845 1,625 309 179 -960
2018-04-17 11:28:17 GMT 24.390905 54.742699 1,675 309 183 -1216
2018-04-17 11:28:07 GMT 24.385162 54.750622 1,875 309 189 -1472
2018-04-17 11:27:56 GMT 24.379440 54.758503 2,075 309 192 -832
2018-04-17 11:27:44 GMT 24.372564 54.767933 2,175 308 195 -192
2018-04-17 11:27:36 GMT 24.368454 54.775646 2,125 289 191 -64
2018-04-17 11:27:33 GMT 24.368189 54.776691 2,125 289 191 -64
2018-04-17 11:27:24 GMT 24.366932 54.785397 2,150 278 190 0
2018-04-17 11:27:14 GMT 24.365433 54.795685 2,150 282 190 -384
2018-04-17 11:27:04 GMT 24.363281 54.805653 2,200 286 191 -768
2018-04-17 11:27:01 GMT 24.362787 54.807629 2,225 286 191 -768
2018-04-17 11:26:52 GMT 24.360764 54.816029 2,300 285 193 -768
2018-04-17 11:26:41 GMT 24.358412 54.826286 2,400 282 195 -704
2018-04-17 11:26:31 GMT 24.357376 54.836426 2,525 266 194 -1280
2018-04-17 11:26:20 GMT 24.360260 54.847004 2,775 237 191 -1088
2018-04-17 11:26:10 GMT 24.365767 54.854218 2,900 224 191 -896
2018-04-17 11:25:58 GMT 24.373215 54.861576 3,025 220 194 -768
2018-04-17 11:25:48 GMT 24.381500 54.867657 3,125 204 201 -640
2018-04-17 11:25:38 GMT 24.390440 54.869972 3,225 180 211 -832
2018-04-17 11:25:27 GMT 24.401752 54.867691 3,375 157 219 -896
2018-04-17 11:25:17 GMT 24.410458 54.862717 3,525 149 221 -768
2018-04-17 11:25:05 GMT 24.420326 54.856293 3,850 149 219 -1088
2018-04-17 11:24:56 GMT 24.429520 54.850311 3,850 148 219 -1344
2018-04-17 11:24:45 GMT 24.438482 54.844318 4,075 148 219 -1216
2018-04-17 11:24:34 GMT 24.447931 54.838051 4,200 149 223 -576
2018-04-17 11:24:24 GMT 24.457718 54.831799 4,250 149 224 -256
2018-04-17 11:24:12 GMT 24.467251 54.825611 4,350 149 230 -640
2018-04-17 11:24:06 GMT 24.473969 54.821217 4,425 149 233 -896
2018-04-17 11:24:01 GMT 24.478088 54.818523 4,500 149 234 -1216
2018-04-17 11:23:52 GMT 24.487381 54.812519 4,600 149 239 -192
2018-04-17 11:23:41 GMT 24.497417 54.805973 4,625 148 247 -640
2018-04-17 11:23:30 GMT 24.508265 54.798717 4,825 147 249 -1472
2018-04-17 11:23:20 GMT 24.518227 54.791252 5,025 141 250 -1024
2018-04-17 11:23:08 GMT 24.527115 54.781597 5,125 127 256 -704
2018-04-17 11:22:57 GMT 24.534943 54.769287 5,250 123 262 -704
2018-04-17 11:22:48 GMT 24.541828 54.758087 5,350 124 265 -704
2018-04-17 11:22:35 GMT 24.549881 54.745029 5,500 124 269 -896
2018-04-17 11:22:25 GMT 24.557877 54.732208 5,625 124 275 -768
2018-04-17 11:22:14 GMT 24.564777 54.721035 5,750 123 283 -832
2018-04-17 11:22:11 GMT 24.567291 54.716991 5,775 123 286 -640
2018-04-17 11:22:05 GMT 24.572645 54.708237 5,850 123 292 -704
2018-04-17 11:22:00 GMT 24.576229 54.702274 5,900 123 295 -832
2018-04-17 11:21:55 GMT 24.580444 54.695385 5,975 123 299 -960
2018-04-17 11:21:51 GMT 24.583492 54.690407 6,025 123 301 -1280
2018-04-17 11:21:43 GMT 24.588753 54.681751 6,150 123 301 -1280
2018-04-17 11:21:38 GMT 24.592438 54.675751 6,250 123 303 -1216
2018-04-17 11:21:33 GMT 24.597645 54.667141 6,375 123 304 -1216
2018-04-17 11:21:27 GMT 24.603699 54.657135 6,525 123 307 -1216
2018-04-17 11:21:21 GMT 24.605576 54.653980 6,550 123 308 -1280
2018-04-17 11:21:10 GMT 24.615189 54.637859 6,775 123 312 -1152
2018-04-17 11:20:58 GMT 24.629160 54.614384 7,125 123 317 -1344
2018-04-17 11:20:50 GMT 24.630707 54.611816 7,175 123 317 -1408
2018-04-17 11:20:40 GMT 24.639542 54.597130 7,400 123 318 -1408
2018-04-17 11:20:29 GMT 24.648012 54.583084 7,625 123 319 -1408
2018-04-17 11:20:18 GMT 24.657211 54.568073 7,875 123 320 -1280
2018-04-17 11:20:08 GMT 24.666122 54.553596 8,075 123 321 -832
2018-04-17 11:19:56 GMT 24.675247 54.538776 8,100 123 322 64
2018-04-17 11:19:46 GMT 24.683578 54.525196 8,100 123 322 -64
2018-04-17 11:19:36 GMT 24.692657 54.510376 8,100 123 322 64
2018-04-17 11:19:25 GMT 24.701317 54.496178 8,100 123 322 -64
2018-04-17 11:19:15 GMT 24.710587 54.481049 8,100 123 322 -128
2018-04-17 11:19:03 GMT 24.719238 54.466858 8,100 123 325 -64
2018-04-17 11:18:53 GMT 24.728130 54.452286 8,100 123 333 64
2018-04-17 11:18:42 GMT 24.737906 54.436272 8,100 123 343 -64
2018-04-17 11:18:32 GMT 24.746983 54.421345 8,100 123 346 0
2018-04-17 11:18:20 GMT 24.756666 54.405540 8,100 123 347 0
2018-04-17 11:18:10 GMT 24.766113 54.390106 8,100 123 347 0
2018-04-17 11:17:59 GMT 24.776001 54.374035 8,100 124 347 -64
2018-04-17 11:17:49 GMT 24.785156 54.359264 8,100 124 346 -64
2018-04-17 11:17:38 GMT 24.796188 54.342369 8,100 127 345 -64
2018-04-17 11:17:28 GMT 24.806150 54.329723 8,100 136 340 0
2018-04-17 11:17:17 GMT 24.819168 54.317371 8,100 140 339 0
2018-04-17 11:17:07 GMT 24.832733 54.305214 8,100 140 341 -64
2018-04-17 11:16:56 GMT 24.845398 54.293926 8,100 140 341 -64
2018-04-17 11:16:44 GMT 24.858755 54.281944 8,100 140 341 0
2018-04-17 11:16:34 GMT 24.872023 54.270077 8,100 140 341 0
2018-04-17 11:16:24 GMT 24.884544 54.258884 8,100 140 339 0
2018-04-17 11:16:12 GMT 24.897903 54.246979 8,100 140 339 0
2018-04-17 11:16:02 GMT 24.910753 54.235458 8,100 140 339 -64
2018-04-17 11:15:52 GMT 24.924440 54.223282 8,100 140 339 -64
2018-04-17 11:15:40 GMT 24.937271 54.211834 8,100 140 339 0
2018-04-17 11:15:30 GMT 24.950226 54.200184 8,100 140 340 -64
2018-04-17 11:15:20 GMT 24.963591 54.188145 8,100 140 342 -64
2018-04-17 11:15:08 GMT 24.976227 54.176739 8,100 140 342 -64
2018-04-17 11:14:58 GMT 24.989273 54.165039 8,100 140 343 0
2018-04-17 11:14:47 GMT 25.001949 54.153633 8,100 140 341 64
2018-04-17 11:14:44 GMT 25.006989 54.149170 8,100 140 339 64
2018-04-17 11:14:36 GMT 25.015869 54.141193 8,100 140 335 -64
2018-04-17 11:14:27 GMT 25.027908 54.130505 8,100 140 323 -64
2018-04-17 11:14:15 GMT 25.040085 54.119617 8,100 140 317 0
2018-04-17 11:14:05 GMT 25.051941 54.108990 8,100 140 316 0
2018-04-17 11:13:54 GMT 25.064796 54.097404 8,100 140 316 -64
2018-04-17 11:13:47 GMT 25.072861 54.090168 8,100 140 316 -64
2018-04-17 11:13:44 GMT 25.077209 54.086254 8,100 140 316 0
2018-04-17 11:13:33 GMT 25.089020 54.075623 8,100 140 316 0
2018-04-17 11:13:21 GMT 25.101665 54.064289 8,100 140 316 0
2018-04-17 11:13:12 GMT 25.113024 54.054031 8,100 140 316 0
2018-04-17 11:13:07 GMT 25.124039 54.044140 8,100 140 316 -64
2018-04-17 11:13:01 GMT 25.125641 54.042713 8,100 140 316 -64
2018-04-17 11:12:49 GMT 25.138489 54.031178 8,100 140 315 0
2018-04-17 11:12:41 GMT 25.148300 54.022320 8,100 140 315 0
2018-04-17 11:12:35 GMT 25.160879 54.011017 8,100 140 315 0
2018-04-17 11:12:28 GMT 25.163040 54.009094 8,100 140 315 0
2018-04-17 11:12:20 GMT 25.172104 54.000957 8,100 140 315 0
2018-04-17 11:12:17 GMT 25.174576 53.998718 8,100 140 315 0
2018-04-17 11:12:07 GMT 25.186483 53.987957 8,100 140 315 0
2018-04-17 11:12:01 GMT 25.197842 53.977749 8,100 140 316 -64
2018-04-17 11:11:56 GMT 25.198307 53.977333 8,100 140 316 -64
2018-04-17 11:11:44 GMT 25.218512 53.959145 8,100 140 316 -64
2018-04-17 11:11:36 GMT 25.222376 53.955669 8,100 140 315 0
2018-04-17 11:11:24 GMT 25.234543 53.944752 8,100 140 316 0
2018-04-17 11:11:11 GMT 25.255985 53.925354 8,100 140 316 0
2018-04-17 11:11:04 GMT 25.258392 53.923187 8,100 140 316 -64
2018-04-17 11:10:53 GMT 25.270386 53.912304 8,100 140 316 0
2018-04-17 11:10:42 GMT 25.282801 53.901154 8,100 140 316 0
2018-04-17 11:10:32 GMT 25.294922 53.890228 8,100 140 314 -64
2018-04-17 11:10:20 GMT 25.307285 53.879131 8,100 140 314 0
2018-04-17 11:10:07 GMT 25.327194 53.861187 8,100 140 311 0
2018-04-17 11:10:00 GMT 25.331306 53.857414 8,100 140 311 0
2018-04-17 11:09:49 GMT 25.343033 53.846790 8,100 140 312 -64
2018-04-17 11:09:39 GMT 25.353418 53.837360 8,100 140 311 0
2018-04-17 11:09:36 GMT 25.356674 53.834431 8,100 140 311 0
2018-04-17 11:09:28 GMT 25.367020 53.825123 8,100 140 312 -64
2018-04-17 11:09:17 GMT 25.378977 53.814301 8,100 140 311 0
2018-04-17 11:09:08 GMT 25.388845 53.805386 8,100 140 312 -64
2018-04-17 11:09:05 GMT 25.391127 53.803364 8,100 140 312 -64
2018-04-17 11:08:57 GMT 25.401123 53.794353 8,100 140 312 0
2018-04-17 11:08:53 GMT 25.404694 53.791096 8,100 140 312 -64
2018-04-17 11:08:45 GMT 25.415268 53.781536 8,100 140 313 -64
2018-04-17 11:08:34 GMT 25.427530 53.770458 8,100 140 313 -64
2018-04-17 11:08:22 GMT 25.439169 53.759888 8,100 140 313 -64
2018-04-17 11:08:14 GMT 25.450014 53.750092 8,100 140 314 0
2018-04-17 11:08:11 GMT 25.452250 53.748020 8,100 140 314 0
2018-04-17 11:08:02 GMT 25.463882 53.737488 8,100 140 315 -64
2018-04-17 11:07:50 GMT 25.476410 53.726097 8,100 140 316 0
2018-04-17 11:07:39 GMT 25.488739 53.714954 8,100 140 316 0
2018-04-17 11:07:29 GMT 25.499966 53.704800 8,100 140 314 -64
2018-04-17 11:07:19 GMT 25.511930 53.693970 8,100 140 314 0
2018-04-17 11:07:08 GMT 25.524216 53.682911 8,100 140 312 -64
2018-04-17 11:06:57 GMT 25.536072 53.672180 8,100 140 311 -64
2018-04-17 11:06:46 GMT 25.549217 53.660282 8,100 140 313 0
2018-04-17 11:06:35 GMT 25.560251 53.650181 8,100 140 315 0
2018-04-17 11:06:31 GMT 25.564636 53.646191 8,100 140 315 0
2018-04-17 11:06:22 GMT 25.575485 53.636322 8,100 140 315 64
2018-04-17 11:06:15 GMT 25.584549 53.628132 8,100 140 315 -64
2018-04-17 11:06:04 GMT 25.596725 53.617046 8,100 140 314 0
2018-04-17 11:05:51 GMT 25.609922 53.605042 8,100 140 315 0
2018-04-17 11:05:41 GMT 25.622353 53.593693 8,100 140 316 0
2018-04-17 11:05:32 GMT 25.633013 53.584003 8,100 140 316 0
2018-04-17 11:05:21 GMT 25.644470 53.573559 8,100 140 316 0
2018-04-17 11:05:11 GMT 25.656847 53.562286 8,100 140 316 -64
2018-04-17 11:05:07 GMT 25.660126 53.559315 8,100 140 316 -64
2018-04-17 11:04:58 GMT 25.671091 53.549282 8,100 140 316 0
2018-04-17 11:04:48 GMT 25.681412 53.539936 8,100 140 315 -64
2018-04-17 11:04:37 GMT 25.693817 53.528645 8,100 140 315 -64
2018-04-17 11:04:27 GMT 25.705307 53.518116 8,100 140 316 0
2018-04-17 11:04:22 GMT 25.710894 53.513004 8,100 140 316 0
2018-04-17 11:04:17 GMT 25.717575 53.506927 8,100 140 316 0
2018-04-17 11:04:06 GMT 25.729340 53.496094 8,100 74 337 64
2018-04-17 11:03:54 GMT 25.742249 53.484295 8,100 140 316 0
2018-04-17 11:03:44 GMT 25.754745 53.473206 8,100 141 315 -64
2018-04-17 11:03:34 GMT 25.766373 53.462017 8,100 132 319 -64
2018-04-17 11:03:23 GMT 25.775894 53.448536 8,100 120 323 0
2018-04-17 11:03:10 GMT 25.784042 53.429615 8,100 109 327 0
2018-04-17 11:03:01 GMT 25.787100 53.414955 8,100 96 333 0
2018-04-17 11:02:50 GMT 25.787567 53.395588 8,100 83 336 0
2018-04-17 11:02:40 GMT 25.784317 53.377331 8,100 71 338 64
2018-04-17 11:01:32 GMT 25.704285 53.326756 9,400 344 315 -2880
2018-04-17 11:01:24 GMT 25.695347 53.331470 10,050 319 324 -1280
2018-04-17 11:01:12 GMT 25.680590 53.343803 10,050 319 324 -1280
2018-04-17 11:01:04 GMT 25.670767 53.353394 10,325 319 336 -1408
2018-04-17 11:00:59 GMT 25.664291 53.359730 10,325 319 336 -1408
2018-04-17 11:00:52 GMT 25.657684 53.366192 10,500 319 352 -2496
2018-04-17 11:00:42 GMT 25.645117 53.378578 11,450 319 374 -4864
2018-04-17 11:00:34 GMT 25.633663 53.389771 11,525 319 374 -4864
2018-04-17 11:00:30 GMT 25.628632 53.394672 11,800 319 374 -4864
2018-04-17 11:00:19 GMT 25.615448 53.407238 12,550 320 382 -4160
2018-04-17 11:00:10 GMT 25.603180 53.418732 13,125 321 393 -3200
2018-04-17 10:59:59 GMT 25.586554 53.434132 13,800 321 409 -4416
2018-04-17 10:59:48 GMT 25.571411 53.448078 14,800 321 415 -6656
2018-04-17 10:59:40 GMT 25.558249 53.460251 15,750 320 418 -6784
2018-04-17 10:59:37 GMT 25.555269 53.462997 15,975 320 418 -6976
2018-04-17 10:59:28 GMT 25.540604 53.476715 17,100 320 423 -6528
2018-04-17 10:59:22 GMT 25.532822 53.484039 17,625 320 422 -6400
2018-04-17 10:59:19 GMT 25.528502 53.488129 17,950 320 423 -6912
2018-04-17 10:59:14 GMT 25.520874 53.495281 18,525 320 423 -6912
2018-04-17 10:59:06 GMT 25.507095 53.508148 19,500 320 423 -6272
2018-04-17 10:58:55 GMT 25.491074 53.523163 20,650 320 423 -6912
2018-04-17 10:58:47 GMT 25.480408 53.533020 21,425 321 421 -7296
2018-04-17 10:58:42 GMT 25.473337 53.539486 21,975 321 418 -7104
2018-04-17 10:58:32 GMT 25.456951 53.554462 23,025 321 417 -5632
2018-04-17 10:58:26 GMT 25.447861 53.562672 23,775 321 416 -5824
2018-04-17 10:58:20 GMT 25.439163 53.570507 24,300 321 416 -5760
2018-04-17 10:58:14 GMT 25.430370 53.578506 24,825 321 418 -5440
2018-04-17 10:58:10 GMT 25.424690 53.583744 25,150 321 418 -6016
2018-04-17 10:58:03 GMT 25.415474 53.592190 26,250 320 416 -6336
2018-04-17 10:58:00 GMT 25.409842 53.597424 26,150 320 415 -6400
2018-04-17 10:57:53 GMT 25.399429 53.607178 26,875 320 413 -6336
2018-04-17 10:57:48 GMT 25.393175 53.613022 27,275 320 412 -6080
2018-04-17 10:57:40 GMT 25.379490 53.625820 28,150 320 410 -5568
2018-04-17 10:57:31 GMT 25.368176 53.636448 28,900 320 412 -4416
2018-04-17 10:57:28 GMT 25.364126 53.640282 28,975 320 413 -4352
2018-04-17 10:57:20 GMT 25.351511 53.652096 29,475 320 418 -3200
2018-04-17 10:57:17 GMT 25.347839 53.655548 29,600 320 421 -2688
2018-04-17 10:57:11 GMT 25.338593 53.664246 29,825 320 426 -1536
2018-04-17 10:57:08 GMT 25.332146 53.670284 29,900 320 427 -1216
2018-04-17 10:57:01 GMT 25.322462 53.679405 30,000 320 430 -640
2018-04-17 10:56:57 GMT 25.315887 53.685505 30,025 320 432 -256
2018-04-17 10:56:50 GMT 25.305817 53.694916 30,025 320 433 64
2018-04-17 10:56:46 GMT 25.299362 53.700916 30,000 320 435 384
2018-04-17 10:56:37 GMT 25.286041 53.713226 29,900 321 435 1152
2018-04-17 10:56:34 GMT 25.282654 53.716328 29,850 321 435 1344
2018-04-17 10:56:27 GMT 25.269653 53.728382 29,625 320 435 1792
2018-04-17 10:56:22 GMT 25.263199 53.734386 29,500 320 435 1664
2018-04-17 10:56:18 GMT 25.255463 53.741455 29,375 321 435 1792
2018-04-17 10:56:14 GMT 25.248596 53.747662 29,250 321 435 2048
2018-04-17 10:56:06 GMT 25.238983 53.756458 29,025 319 434 2112
2018-04-17 10:56:03 GMT 25.231777 53.763256 28,850 319 434 2112
2018-04-17 10:55:55 GMT 25.221352 53.773621 28,525 317 432 1792
2018-04-17 10:55:51 GMT 25.216782 53.778278 28,525 317 432 1792
2018-04-17 10:55:46 GMT 25.207260 53.788349 28,350 316 430 1536
2018-04-17 10:55:41 GMT 25.201630 53.794556 28,250 315 429 1472
2018-04-17 10:55:34 GMT 25.190765 53.806992 28,050 314 426 1664
2018-04-17 10:55:31 GMT 25.186716 53.811760 27,950 313 425 1856
2018-04-17 10:55:25 GMT 25.179199 53.820904 27,800 312 424 1920
2018-04-17 10:55:20 GMT 25.172379 53.829296 27,625 312 424 1728
2018-04-17 10:55:12 GMT 25.163115 53.840782 27,425 312 423 1792
2018-04-17 10:55:08 GMT 25.158554 53.846436 27,325 312 423 1728
2018-04-17 10:55:02 GMT 25.149288 53.857830 27,125 312 422 1664
2018-04-17 10:54:58 GMT 25.144455 53.863781 27,025 312 421 1664
2018-04-17 10:54:51 GMT 25.135345 53.875019 26,850 312 421 1664
2018-04-17 10:54:44 GMT 25.125919 53.886749 26,650 312 420 1664
2018-04-17 10:54:41 GMT 25.121384 53.892365 26,550 312 419 1664
2018-04-17 10:54:36 GMT 25.115479 53.899689 26,450 312 418 1664
2018-04-17 10:54:30 GMT 25.107624 53.909447 26,275 312 417 1600
2018-04-17 10:54:26 GMT 25.101608 53.916931 26,150 312 417 1536
2018-04-17 10:54:21 GMT 25.096481 53.923340 26,050 312 416 1536
2018-04-17 10:54:17 GMT 25.092682 53.928120 25,975 312 415 1472
2018-04-17 10:54:14 GMT 25.088722 53.933025 25,900 312 415 1472
2018-04-17 10:54:09 GMT 25.080688 53.942974 25,750 312 413 1472
2018-04-17 10:54:04 GMT 25.076246 53.948521 25,675 312 412 1472
2018-04-17 10:53:59 GMT 25.069016 53.957470 25,425 312 411 1472
2018-04-17 10:53:54 GMT 25.061142 53.967182 25,400 312 410 1408
2018-04-17 10:53:47 GMT 25.053717 53.976398 25,125 312 408 1216
2018-04-17 10:53:42 GMT 25.048050 53.983356 25,200 312 406 1280
2018-04-17 10:53:37 GMT 25.040401 53.992775 25,075 312 405 1472
2018-04-17 10:53:31 GMT 25.034630 53.999874 24,950 312 404 1984
2018-04-17 10:53:27 GMT 25.029282 54.006451 24,800 312 403 2112
2018-04-17 10:53:24 GMT 25.025574 54.011078 24,700 312 404 2176
2018-04-17 10:53:21 GMT 25.021223 54.016510 24,575 312 404 2304
2018-04-17 10:53:15 GMT 25.013123 54.026489 24,325 312 405 2624
2018-04-17 10:53:12 GMT 25.010237 54.030037 24,225 312 405 2560
2018-04-17 10:53:09 GMT 25.005112 54.036407 24,075 312 405 2368
2018-04-17 10:53:06 GMT 25.002741 54.039310 24,000 312 405 1920
2018-04-17 10:53:03 GMT 24.997480 54.045792 23,800 312 403 1344
2018-04-17 10:52:59 GMT 24.994223 54.049831 23,825 312 404 1408
2018-04-17 10:52:53 GMT 24.986389 54.059498 23,700 312 402 1344
2018-04-17 10:52:49 GMT 24.981049 54.066051 23,600 312 400 1472
2018-04-17 10:52:44 GMT 24.974392 54.074242 23,475 312 398 1792
2018-04-17 10:52:38 GMT 24.967621 54.082592 23,300 312 398 1920
2018-04-17 10:52:32 GMT 24.961487 54.090168 23,150 312 397 1792
2018-04-17 10:52:26 GMT 24.952652 54.101055 22,975 312 396 1600
2018-04-17 10:52:21 GMT 24.948029 54.106750 22,850 312 395 1664
2018-04-17 10:52:16 GMT 24.941292 54.115025 22,700 312 394 1792
2018-04-17 10:52:12 GMT 24.935120 54.122669 22,550 312 393 1920
2018-04-17 10:52:06 GMT 24.928391 54.131115 22,400 311 392 1920
2018-04-17 10:51:59 GMT 24.920837 54.140827 22,200 311 391 1920
2018-04-17 10:51:55 GMT 24.915482 54.147797 22,050 310 389 1984
2018-04-17 10:51:49 GMT 24.909256 54.156086 21,625 310 389 1920
2018-04-17 10:51:44 GMT 24.902664 54.164989 21,700 309 389 1920
2018-04-17 10:51:40 GMT 24.897903 54.171448 21,575 309 387 1984
2018-04-17 10:51:35 GMT 24.893921 54.177044 21,450 309 387 1984
2018-04-17 10:51:28 GMT 24.884262 54.190723 21,150 308 385 2112
2018-04-17 10:51:23 GMT 24.879797 54.197060 21,025 308 384 2112
2018-04-17 10:51:19 GMT 24.874769 54.204212 20,875 308 384 2112
2018-04-17 10:51:16 GMT 24.873138 54.206543 20,825 308 384 2176
2018-04-17 10:51:07 GMT 24.862574 54.221519 20,425 308 382 2112
2018-04-17 10:51:04 GMT 24.860321 54.224751 20,425 308 382 2112
2018-04-17 10:50:55 GMT 24.850422 54.238724 20,125 308 381 1920
2018-04-17 10:50:48 GMT 24.842369 54.250023 19,900 309 379 1984
2018-04-17 10:50:45 GMT 24.838692 54.255154 19,800 309 378 2304
2018-04-17 10:50:38 GMT 24.831573 54.264935 19,525 309 378 2944
2018-04-17 10:50:34 GMT 24.826866 54.271423 19,325 309 379 3008
2018-04-17 10:50:29 GMT 24.821320 54.279175 19,075 309 380 2752
2018-04-17 10:50:20 GMT 24.805220 54.301586 18,500 309 381 2368
2018-04-17 10:50:12 GMT 24.803146 54.304455 18,425 309 380 2304
2018-04-17 10:50:04 GMT 24.793396 54.317909 18,075 309 380 2368
2018-04-17 10:50:01 GMT 24.791290 54.320831 18,025 309 380 2240
2018-04-17 10:49:53 GMT 24.781666 54.334335 17,675 308 377 2176
2018-04-17 10:49:47 GMT 24.770279 54.350636 17,350 308 375 2176
2018-04-17 10:49:40 GMT 24.768127 54.353638 17,275 308 375 2176
2018-04-17 10:49:36 GMT 24.762817 54.361217 17,100 308 374 2176
2018-04-17 10:49:30 GMT 24.757597 54.368591 16,950 308 374 2176
2018-04-17 10:49:25 GMT 24.751406 54.377296 16,725 308 373 2048
2018-04-17 10:49:19 GMT 24.745680 54.385384 16,575 309 371 1728
2018-04-17 10:49:14 GMT 24.740295 54.392956 16,450 309 369 1536
2018-04-17 10:49:08 GMT 24.734926 54.400410 16,300 309 365 1664
2018-04-17 10:49:03 GMT 24.728409 54.409477 16,150 309 363 1472
2018-04-17 10:48:58 GMT 24.723907 54.415691 16,050 309 360 1088
2018-04-17 10:48:53 GMT 24.715422 54.427567 15,925 308 353 960
2018-04-17 10:48:48 GMT 24.712509 54.431660 15,875 308 350 960
2018-04-17 10:48:39 GMT 24.704062 54.443527 15,750 308 343 896
2018-04-17 10:48:36 GMT 24.701735 54.446793 15,725 309 341 896
2018-04-17 10:48:29 GMT 24.694380 54.457050 15,625 309 334 1024
2018-04-17 10:48:25 GMT 24.691307 54.461300 15,550 309 331 1408
2018-04-17 10:48:16 GMT 24.681381 54.475098 15,125 309 327 2432
2018-04-17 10:48:13 GMT 24.679504 54.477741 15,125 309 327 2432
2018-04-17 10:48:05 GMT 24.671631 54.488678 14,800 309 325 2496
2018-04-17 10:47:54 GMT 24.661743 54.502460 14,375 309 324 2432
2018-04-17 10:47:43 GMT 24.651876 54.516232 13,950 309 321 2560
2018-04-17 10:47:35 GMT 24.643778 54.527531 13,600 309 319 2560
2018-04-17 10:47:32 GMT 24.641962 54.530071 13,500 309 319 2560
2018-04-17 10:47:24 GMT 24.633768 54.541573 13,150 308 318 2560
2018-04-17 10:47:21 GMT 24.631952 54.544113 13,050 309 317 2560
2018-04-17 10:47:11 GMT 24.621803 54.558311 12,650 308 315 2624
2018-04-17 10:47:03 GMT 24.614822 54.568157 12,275 308 315 2688
2018-04-17 10:47:00 GMT 24.612680 54.571217 12,150 308 314 2688
2018-04-17 10:46:50 GMT 24.603928 54.583549 11,725 308 313 2752
2018-04-17 10:46:40 GMT 24.594315 54.597271 11,250 308 312 2944
2018-04-17 10:46:31 GMT 24.586166 54.608814 10,825 308 312 2816
2018-04-17 10:46:28 GMT 24.584930 54.610596 10,750 308 312 2816
2018-04-17 10:46:18 GMT 24.576138 54.623714 10,300 305 309 2752
2018-04-17 10:46:08 GMT 24.567581 54.638012 9,825 302 308 2752
2018-04-17 10:45:56 GMT 24.559519 54.652576 9,350 299 305 2944
2018-04-17 10:45:46 GMT 24.552954 54.667294 8,825 295 303 3136
2018-04-17 10:45:36 GMT 24.546707 54.682362 8,300 295 305 3264
2018-04-17 10:45:24 GMT 24.540482 54.697266 7,775 295 305 2816
2018-04-17 10:45:14 GMT 24.534286 54.712017 7,350 295 302 2496
2018-04-17 10:45:04 GMT 24.528214 54.726562 6,975 295 298 1984
2018-04-17 10:44:53 GMT 24.522091 54.741089 6,700 295 287 1344
2018-04-17 10:44:43 GMT 24.515991 54.755444 6,400 296 278 2432
2018-04-17 10:44:32 GMT 24.509583 54.769085 5,950 300 277 2752
2018-04-17 10:44:20 GMT 24.501709 54.780628 5,500 317 280 2688
2018-04-17 10:44:11 GMT 24.490585 54.789581 5,025 334 283 2816
2018-04-17 10:43:59 GMT 24.477264 54.794720 4,575 351 284 2752
2018-04-17 10:43:49 GMT 24.463667 54.795139 4,125 8 285 2560
2018-04-17 10:43:39 GMT 24.449980 54.790943 3,675 25 284 2816
2018-04-17 10:43:28 GMT 24.438667 54.782547 3,250 44 282 2304
2018-04-17 10:43:18 GMT 24.430298 54.770611 2,900 64 272 1600
2018-04-17 10:43:15 GMT 24.428986 54.767467 2,850 80 261 1088
2018-04-17 10:43:07 GMT 24.426270 54.756977 2,700 82 260 1088
2018-04-17 10:42:55 GMT 24.426191 54.742699 2,400 98 246 2432
2018-04-17 10:42:43 GMT 24.428333 54.720776 1,850 90 237 1088
2018-04-17 10:42:34 GMT 24.428379 54.716942 1,775 90 231 896
2018-04-17 10:42:29 GMT 24.428421 54.703876 1,625 91 215 1536
2018-04-17 10:42:21 GMT 24.428467 54.702351 1,600 91 215 1536
2018-04-17 10:42:14 GMT 24.429245 54.693451 1,425 106 204 2240
2018-04-17 10:42:11 GMT 24.431351 54.687042 1,175 118 201 2304
2018-04-17 10:42:02 GMT 24.433594 54.683025 1,025 127 200 2816

Making use of Plane Finder data

You are free to use the raw flight data, aircraft information and images provided in this report for your own purposes provided the data is correctly attributed to Plane Finder. We ask that you please credit Plane Finder and link to planefinder.net in close proximity to the content.

Optionally one of the following logos (no smaller then 150x24px) can be used and must link to planefinder.net

Embedding the Plane Finder map

You are welcome to embed the Plane Finder playback map on your website to offer visitors a more interactive experience. We suggest using the following HTML code:

<iframe src="//planefinder.net/data/report/EY303-A6-BLM-7700-squawk-2018-04-17/map" width="800" height="600" seamless="seamless"></iframe>

Where our data comes from

Plane Finder has a global network of data feeds and antenna radars that receive data broadcast directly from aircraft. The primary technologies used are ADS-B and MLAT. We also show feeds from the FAA and a FLARM glider feed.

Click here to find out more about the Plane Finder network.

How we collect our data